createdAt,value
2019-02-27T00:02:02.639Z,21.4
2019-02-27T00:12:01.842Z,21.4
2019-02-27T00:22:01.044Z,21.4
2019-02-27T00:32:00.246Z,21.4
2019-02-27T00:41:59.451Z,21.4
2019-02-27T00:51:58.650Z,21.4
2019-02-27T01:01:57.902Z,21.3
2019-02-27T01:11:57.055Z,21.3
2019-02-27T01:21:56.255Z,21.4
2019-02-27T01:31:57.599Z,21.4
2019-02-27T01:41:55.239Z,21.3
2019-02-27T01:51:53.860Z,21.3
2019-02-27T02:01:53.097Z,21.4
2019-02-27T02:11:52.264Z,21.3
2019-02-27T02:21:51.469Z,21.3
2019-02-27T02:31:50.667Z,21.3
2019-02-27T02:41:49.869Z,21.3
2019-02-27T02:51:49.070Z,21.3
2019-02-27T03:01:49.142Z,21.3
2019-02-27T03:11:53.743Z,21.3
2019-02-27T03:21:46.674Z,21.2
2019-02-27T03:31:45.925Z,21.2
2019-02-27T03:41:45.077Z,21.2
2019-02-27T03:51:44.279Z,21.2
2019-02-27T04:01:43.479Z,21.2
2019-02-27T04:11:42.850Z,21.2
2019-02-27T04:21:41.931Z,21.2
2019-02-27T04:31:41.079Z,21.2
2019-02-27T04:41:40.281Z,21.1
2019-02-27T04:51:39.481Z,21.1
2019-02-27T05:01:38.680Z,21.1
2019-02-27T05:11:37.881Z,21.2
2019-02-27T05:21:37.083Z,21.3
2019-02-27T05:31:36.286Z,21.6
2019-02-27T05:41:35.503Z,21.6
2019-02-27T05:51:34.693Z,21.8
2019-02-27T06:01:37.697Z,22
2019-02-27T06:11:34.095Z,21.9
2019-02-27T06:21:33.300Z,21.9
2019-02-27T06:31:36.261Z,21.9
2019-02-27T06:41:31.706Z,21.8
2019-02-27T06:51:33.335Z,21.7
2019-02-27T07:01:30.112Z,21.8
2019-02-27T07:11:29.316Z,21.9
2019-02-27T07:21:32.335Z,21.9
2019-02-27T07:31:27.728Z,21.9
2019-02-27T07:41:26.925Z,21.9
2019-02-27T07:51:26.129Z,21.9
2019-02-27T08:01:25.333Z,21.9
2019-02-27T08:11:26.405Z,21.8
2019-02-27T08:21:23.742Z,21.9
2019-02-27T08:31:22.949Z,21.9
2019-02-27T08:41:22.154Z,21.9
2019-02-27T08:51:21.358Z,21.8
2019-02-27T09:02:24.147Z,21.7
2019-02-27T09:12:21.482Z,21.7
2019-02-27T09:22:20.687Z,21.8
2019-02-27T09:32:20.447Z,21.9
2019-02-27T09:42:19.688Z,22
2019-02-27T09:52:18.294Z,22
2019-02-27T10:02:17.496Z,22
2019-02-27T10:12:16.700Z,21.9
2019-02-27T10:22:17.617Z,21.9
2019-02-27T10:32:15.108Z,22
2019-02-27T10:42:14.309Z,22
2019-02-27T10:52:13.512Z,22.1
2019-02-27T11:02:13.282Z,22.2
2019-02-27T11:12:11.919Z,22.1
2019-02-27T11:22:11.124Z,22.1
2019-02-27T11:32:10.325Z,22.1
2019-02-27T11:42:09.528Z,22
2019-02-27T11:52:08.731Z,22.2
2019-02-27T12:02:07.937Z,22.1
2019-02-27T12:12:07.140Z,22.1
2019-02-27T12:22:06.344Z,22.2
2019-02-27T12:32:06.139Z,22.2
2019-02-27T12:42:06.958Z,22.1
2019-02-27T12:52:03.960Z,22.1
2019-02-27T13:02:08.213Z,22.1
2019-02-27T13:12:02.364Z,22.1
2019-02-27T13:22:01.569Z,22.1
2019-02-27T13:32:00.780Z,22.3
2019-02-27T13:41:59.983Z,22.3
2019-02-27T13:51:59.188Z,22.1
2019-02-27T14:02:00.605Z,22.3
2019-02-27T14:11:58.679Z,22.4
2019-02-27T14:21:56.801Z,22.4
2019-02-27T14:31:56.004Z,22.3
2019-02-27T14:41:55.208Z,22.2
2019-02-27T14:51:54.413Z,22.1
2019-02-27T15:01:53.624Z,22.2
2019-02-27T15:11:52.820Z,22.1
2019-02-27T15:21:52.024Z,22
2019-02-27T15:31:52.133Z,21.9
2019-02-27T15:41:50.433Z,21.9
2019-02-27T15:51:49.636Z,21.8
2019-02-27T16:01:48.839Z,22
2019-02-27T16:11:50.641Z,22.1
2019-02-27T16:21:47.242Z,22.1
2019-02-27T16:31:46.517Z,22.2
2019-02-27T16:41:45.675Z,22.3
2019-02-27T16:51:44.849Z,22.4
2019-02-27T17:01:44.048Z,22.2
2019-02-27T17:11:43.251Z,22.2
2019-02-27T17:21:42.453Z,22.4
2019-02-27T17:31:48.909Z,22.6
2019-02-27T17:41:41.810Z,22.6
2019-02-27T17:51:40.687Z,22.6
2019-02-27T18:01:39.266Z,22.4
2019-02-27T18:11:38.465Z,22.4
2019-02-27T18:21:37.674Z,22.3
2019-02-27T18:31:36.885Z,22.4
2019-02-27T18:41:36.074Z,22.4
2019-02-27T18:51:35.283Z,22.4
2019-02-27T19:01:34.485Z,22.4
2019-02-27T19:11:33.715Z,22.6
2019-02-27T19:21:33.604Z,22.6
2019-02-27T19:31:32.104Z,22.4
2019-02-27T19:41:31.416Z,22.4
2019-02-27T19:51:30.520Z,22.3
2019-02-27T20:01:29.728Z,22.3
2019-02-27T20:11:28.933Z,22.2
2019-02-27T20:21:28.141Z,22.2
2019-02-27T20:31:27.354Z,22.2
2019-02-27T20:41:26.579Z,22.1
2019-02-27T20:51:25.759Z,22
2019-02-27T21:01:31.261Z,22
2019-02-27T21:11:33.636Z,21.9
2019-02-27T21:21:32.856Z,21.9
2019-02-27T21:31:32.044Z,21.9
2019-02-27T21:41:31.251Z,21.9
2019-02-27T21:51:30.451Z,21.8
2019-02-27T22:01:29.655Z,21.8
2019-02-27T22:11:28.909Z,21.8
2019-02-27T22:21:28.198Z,21.7
2019-02-27T22:31:27.485Z,21.7
2019-02-27T22:41:26.772Z,21.6
2019-02-27T22:51:26.061Z,21.6
2019-02-27T23:01:25.349Z,21.6
2019-02-27T23:11:24.551Z,21.6
2019-02-27T23:21:26.555Z,21.5
2019-02-27T23:31:23.631Z,21.5
2019-02-27T23:41:23.125Z,21.5
2019-02-27T23:51:21.363Z,21.5
